Terminal Aerodrome Forecast
Issued by NWS Cleveland, OH

Home | Current Version | Previous Version | Graphics & Text | Print | Product List | Glossary On
Versions: 1 2 3 4 5 6 7 8 9 10 11 12 13 14 15 16 17 18 19 20 21 22 23 24 25 26 27 28
000
FTUS41 KCLE 010200 AAA
TAFCLE
TAF AMD
KCLE 010256Z 0103/0206 18007KT P6SM SCT200
     FM010600 20004KT 5SM BR SCT020
     FM010900 20004KT 3SM BR BKN015
     FM011500 20010KT P6SM OVC020
     FM011800 20012KT P6SM SCT020 BKN040=

USA.gov is the U.S. government's official web portal to all federal, state and local government web resources and services.